Terminal Aerodrome Forecast
Issued by NWS Duluth, MN

Home | Current Version | Previous Version | Text Only | Print | Product List | Glossary On
Versions: 1 2 3 4 5 6 7 8 9 10 11 12 13 14 15 16 17 18 19 20 21 22 23 24 25 26 27 28 29 30 31 32 33 34 35 36
000
FTUS43 KDLH 231641 AAB
TAFDLH
TAF AMD
KDLH 231641Z 2317/2412 10015G21KT P6SM SCT011 BKN100
      TEMPO 2317/2320 BKN011
     FM240300 09012G18KT P6SM VCSH SCT013 BKN060
      TEMPO 2403/2407 5SM SHRA BR BKN013 OVC060
     FM240700 09012G17KT 6SM BR BKN013 OVC025
     FM241000 10012G16KT 4SM -DZ BR OVC009=

USA.gov is the U.S. government's official web portal to all federal, state and local government web resources and services.